Time;durP1;ratioP1;P1;durP2;ratioP2;P2;SDS_P1;SDS_P2;PMS_P1;PMS_P2;Temp;Humidity;BMP_temperature;BMP_pressure;BME280_temperature;BME280_humidity;BME280_pressure;Samples;Min_cycle;Max_cycle;Signal;HPM_P1;HPM_P2
2024/01/03 00:01:59;;;;;;;;;;;;;;;25.74;38.98;92991.88;4821253;29;7253;-47
2024/01/03 00:04:58;;;;;;;;;;;;;;;25.76;38.79;92985.81;4808152;29;9074;-47
2024/01/03 00:07:32;;;;;;;;;;;;;;;25.75;38.92;93007.09;4797259;29;9063;-47
2024/01/03 00:10:41;;;;;;;;;;;;;;;25.74;39.62;93033.19;4865239;29;9451;-48
2024/01/03 00:13:27;;;;;;;;;;;;;;;25.77;38.94;93017.59;4841472;29;7048;-48
2024/01/03 00:16:01;;;;;;;;;;;;;;;25.74;39.24;93024.19;4857329;29;9241;-47
2024/01/03 00:18:47;;;;;;;;;;;;;;;25.76;39.01;93008.59;4839283;29;8955;-48
2024/01/03 00:21:22;;;;;;;;;;;;;;;25.75;39.24;93009.88;4856068;29;9452;-47
2024/01/03 00:23:55;;;;;;;;;;;;;;;25.77;38.67;93029.34;4841432;29;9102;-48
2024/01/03 00:26:28;;;;;;;;;;;;;;;25.76;39.05;93029.88;4841932;29;7181;-46
2024/01/03 00:28:56;;;;;;;;;;;;;;;25.74;38.85;93029.69;4859715;29;7154;-48
2024/01/03 00:32:18;;;;;;;;;;;;;;;25.73;39.42;93048.22;4859141;29;9020;-46
2024/01/03 00:34:44;;;;;;;;;;;;;;;25.74;39.18;93030.44;4844327;29;7066;-47
2024/01/03 00:37:28;;;;;;;;;;;;;;;25.72;38.47;93030.25;4858896;29;7245;-46
2024/01/03 00:40:30;;;;;;;;;;;;;;;25.73;39.20;93042.00;4848579;29;7233;-57
2024/01/03 00:43:17;;;;;;;;;;;;;;;25.74;39.36;93037.97;4852372;29;7179;-57
2024/01/03 00:45:44;;;;;;;;;;;;;;;25.74;39.23;93024.94;4826292;29;7530;-57
2024/01/03 00:48:12;;;;;;;;;;;;;;;25.73;39.18;93058.53;4853140;29;8890;-57
2024/01/03 00:50:49;;;;;;;;;;;;;;;25.72;38.46;93048.78;4891980;29;7295;-57
2024/01/03 00:53:25;;;;;;;;;;;;;;;25.73;39.05;93042.72;4884115;29;8741;-57
2024/01/03 00:56:03;;;;;;;;;;;;;;;25.71;38.63;93028.75;4863125;29;9191;-57
2024/01/03 00:58:44;;;;;;;;;;;;;;;25.71;38.57;93028.03;4863595;29;7240;-57
2024/01/03 01:01:12;;;;;;;;;;;;;;;25.69;38.71;93052.63;4895987;29;7896;-57
2024/01/03 01:03:40;;;;;;;;;;;;;;;25.70;38.93;93063.09;4862188;29;8777;-57
2024/01/03 01:06:17;;;;;;;;;;;;;;;25.72;39.00;93057.03;4888401;29;7102;-57
2024/01/03 01:08:43;;;;;;;;;;;;;;;25.70;38.56;93054.09;4907275;29;7494;-57
2024/01/03 01:11:11;;;;;;;;;;;;;;;25.69;38.82;93045.09;4939675;29;7253;-57
2024/01/03 01:13:39;;;;;;;;;;;;;;;25.67;39.39;93044.91;4974570;28;7164;-57
2024/01/03 01:16:23;;;;;;;;;;;;;;;25.68;39.10;93035.38;4958440;28;7004;-57
2024/01/03 01:18:49;;;;;;;;;;;;;;;25.65;39.31;93041.97;4970445;28;9110;-57
2024/01/03 01:21:17;;;;;;;;;;;;;;;25.69;38.71;93036.84;4940108;29;6985;-57
2024/01/03 01:24:01;;;;;;;;;;;;;;;25.71;38.78;93050.06;4958308;28;7032;-57
2024/01/03 01:26:38;;;;;;;;;;;;;;;25.71;38.76;93052.84;4958241;28;7013;-57
2024/01/03 01:29:30;;;;;;;;;;;;;;;25.68;38.60;93056.66;4940752;29;8964;-57
2024/01/03 01:32:05;;;;;;;;;;;;;;;25.68;39.19;93065.66;4952534;28;8735;-57
2024/01/03 01:34:34;;;;;;;;;;;;;;;25.72;39.36;93060.53;4939032;29;9131;-57
2024/01/03 01:37:01;;;;;;;;;;;;;;;25.70;39.14;93049.34;4940319;28;7337;-57
2024/01/03 01:39:31;;;;;;;;;;;;;;;25.71;38.30;93053.53;4941940;28;6975;-57
2024/01/03 01:41:58;;;;;;;;;;;;;;;25.70;38.90;93054.84;4954436;28;9445;-57
2024/01/03 01:44:24;;;;;;;;;;;;;;;25.68;38.44;93059.41;4945478;28;7284;-57
2024/01/03 01:46:54;;;;;;;;;;;;;;;25.68;39.14;93054.66;4960307;28;9484;-57
2024/01/03 01:49:33;;;;;;;;;;;;;;;25.71;38.88;93050.06;4965607;28;8229;-41
2024/01/03 01:52:01;;;;;;;;;;;;;;;25.73;38.67;93047.50;4957945;28;7250;-41
2024/01/03 01:54:30;;;;;;;;;;;;;;;25.72;39.18;93046.78;4957955;28;8995;-40
2024/01/03 01:56:57;;;;;;;;;;;;;;;25.69;38.46;93047.84;4957552;28;8719;-40
2024/01/03 01:59:23;;;;;;;;;;;;;;;25.70;38.63;93049.34;4952669;28;7247;-40
2024/01/03 02:01:51;;;;;;;;;;;;;;;25.68;38.95;93029.88;4946599;28;7038;-40
2024/01/03 02:04:18;;;;;;;;;;;;;;;25.65;39.18;93033.69;4949366;28;9279;-41
2024/01/03 02:06:50;;;;;;;;;;;;;;;25.68;38.81;93037.38;4955501;28;9221;-40
2024/01/03 02:09:17;;;;;;;;;;;;;;;25.66;39.06;93043.44;4957889;28;8702;-40
2024/01/03 02:12:02;;;;;;;;;;;;;;;25.67;39.21;93031.13;4941691;28;7278;-40
2024/01/03 02:14:44;;;;;;;;;;;;;;;25.66;38.82;93026.91;4955988;28;7131;-40
2024/01/03 02:17:22;;;;;;;;;;;;;;;25.66;38.76;93021.41;4938440;28;9058;-40
2024/01/03 02:20:00;;;;;;;;;;;;;;;25.64;38.49;93020.47;4973237;28;8515;-40
2024/01/03 02:22:44;;;;;;;;;;;;;;;25.66;38.43;93017.91;4956810;28;7551;-41
2024/01/03 02:25:23;;;;;;;;;;;;;;;25.65;38.53;93019.94;4969946;28;7075;-40
2024/01/03 02:27:57;;;;;;;;;;;;;;;25.68;39.11;93018.09;4943989;28;8691;-40
2024/01/03 02:30:33;;;;;;;;;;;;;;;25.66;38.40;93007.66;4970088;28;9132;-43
2024/01/03 02:33:04;;;;;;;;;;;;;;;25.69;38.46;93003.78;4946853;28;7017;-39
2024/01/03 02:35:39;;;;;;;;;;;;;;;25.69;38.54;93008.56;4972452;28;9144;-41
2024/01/03 02:38:07;;;;;;;;;;;;;;;25.69;38.81;93006.53;4941107;28;7521;-40
2024/01/03 02:40:35;;;;;;;;;;;;;;;25.67;38.60;93000.09;4957089;28;7407;-40
2024/01/03 02:43:00;;;;;;;;;;;;;;;25.68;38.42;92996.06;4964400;28;9106;-41
2024/01/03 02:45:26;;;;;;;;;;;;;;;25.68;38.71;92996.81;4955994;28;8952;-41
2024/01/03 02:47:59;;;;;;;;;;;;;;;25.68;38.57;92985.81;4972563;28;7280;-40
2024/01/03 02:50:28;;;;;;;;;;;;;;;25.66;38.74;92977.34;4958566;28;8826;-40
2024/01/03 02:53:05;;;;;;;;;;;;;;;25.65;39.04;92964.84;4972450;28;7070;-40
2024/01/03 02:55:31;;;;;;;;;;;;;;;25.64;38.99;92971.66;4956624;28;7054;-41
2024/01/03 02:58:10;;;;;;;;;;;;;;;25.66;38.44;92973.84;4972662;28;7227;-39
2024/01/03 03:00:36;;;;;;;;;;;;;;;25.63;38.61;92950.91;4972560;28;7292;-39
2024/01/03 03:03:31;;;;;;;;;;;;;;;25.66;38.87;92960.09;4952983;28;7013;-39
2024/01/03 03:05:58;;;;;;;;;;;;;;;25.65;39.00;92953.09;4913726;29;7143;-39
2024/01/03 03:08:33;;;;;;;;;;;;;;;25.66;38.67;92957.34;4913973;29;7010;-39
2024/01/03 03:11:02;;;;;;;;;;;;;;;25.66;38.35;92966.34;4917867;29;8839;-39
2024/01/03 03:14:00;;;;;;;;;;;;;;;25.68;39.06;92971.28;4916782;29;7054;-39
2024/01/03 03:16:50;;;;;;;;;;;;;;;25.68;38.74;92963.03;4864456;29;9142;-39
2024/01/03 03:19:16;;;;;;;;;;;;;;;25.65;38.36;92948.34;4856528;29;9208;-40
2024/01/03 03:21:47;;;;;;;;;;;;;;;25.65;38.91;92945.59;4845476;29;7002;-40
2024/01/03 03:24:25;;;;;;;;;;;;;;;25.62;38.34;92946.66;4869384;29;7354;-39
2024/01/03 03:27:35;;;;;;;;;;;;;;;25.63;38.57;92942.63;4862486;29;7164;-40
2024/01/03 03:30:31;;;;;;;;;;;;;;;25.62;38.87;92940.44;4863027;29;9055;-40
2024/01/03 03:33:32;;;;;;;;;;;;;;;25.63;38.41;92945.41;4805251;29;7620;-39
2024/01/03 03:36:24;;;;;;;;;;;;;;;25.63;38.98;92948.16;4806048;29;7986;-39
2024/01/03 03:39:02;;;;;;;;;;;;;;;25.60;38.84;92946.47;4775457;30;9325;-41
2024/01/03 03:41:47;;;;;;;;;;;;;;;25.60;38.37;92951.97;4770108;30;7311;-39
2024/01/03 03:44:50;;;;;;;;;;;;;;;25.62;38.53;92959.72;4784498;30;7273;-39
2024/01/03 03:47:19;;;;;;;;;;;;;;;25.57;38.57;92942.06;4772617;30;8704;-40
2024/01/03 03:49:45;;;;;;;;;;;;;;;25.61;39.09;92939.69;4770413;30;7008;-39
2024/01/03 03:52:10;;;;;;;;;;;;;;;25.62;39.04;92948.69;4792105;29;9148;-39
2024/01/03 03:54:39;;;;;;;;;;;;;;;25.59;38.40;92960.78;4819463;29;7115;-39
2024/01/03 03:57:05;;;;;;;;;;;;;;;25.60;38.31;92959.53;4813357;29;9070;-40
2024/01/03 03:59:31;;;;;;;;;;;;;;;25.58;38.24;92954.53;4821044;29;8720;-39
2024/01/03 04:02:05;;;;;;;;;;;;;;;25.61;38.36;92950.72;4822234;29;7271;-40
2024/01/03 04:04:44;;;;;;;;;;;;;;;25.61;39.04;92950.72;4805587;29;8797;-39
2024/01/03 04:07:21;;;;;;;;;;;;;;;25.57;38.27;92952.34;4790918;29;9101;-39
2024/01/03 04:09:57;;;;;;;;;;;;;;;25.54;38.62;92959.66;4842091;29;7259;-36
2024/01/03 04:12:38;;;;;;;;;;;;;;;25.56;38.90;92975.63;4928071;28;6992;-36
2024/01/03 04:15:24;;;;;;;;;;;;;;;25.58;38.85;92993.09;4968283;28;9215;-36
2024/01/03 04:17:51;;;;;;;;;;;;;;;25.59;39.19;93004.84;4936552;29;9032;-36
2024/01/03 04:20:36;;;;;;;;;;;;;;;25.61;39.11;93011.28;4955303;28;8767;-36
2024/01/03 04:23:04;;;;;;;;;;;;;;;25.58;38.58;92990.34;4954259;28;9109;-36
2024/01/03 04:26:03;;;;;;;;;;;;;;;25.57;38.57;92994.38;4952504;28;8981;-36
2024/01/03 04:28:43;;;;;;;;;;;;;;;25.54;38.47;93017.50;4954392;28;7217;-36
2024/01/03 04:31:09;;;;;;;;;;;;;;;25.57;38.53;92997.13;4955134;28;9287;-36
2024/01/03 04:33:51;;;;;;;;;;;;;;;25.56;38.25;92970.88;4939257;29;7152;-36
2024/01/03 04:36:19;;;;;;;;;;;;;;;25.54;39.08;92984.44;4941923;29;7724;-36
2024/01/03 04:38:45;;;;;;;;;;;;;;;25.57;38.97;92991.63;4950850;28;7273;-36
2024/01/03 04:41:11;;;;;;;;;;;;;;;25.58;38.63;93004.09;4973661;28;7227;-36
2024/01/03 04:43:37;;;;;;;;;;;;;;;25.55;38.56;92996.94;4953180;28;8232;-36
2024/01/03 04:46:03;;;;;;;;;;;;;;;25.55;38.38;92991.44;4972004;28;9084;-36
2024/01/03 04:48:29;;;;;;;;;;;;;;;25.56;38.35;93001.16;4972538;28;7054;-36
2024/01/03 04:50:59;;;;;;;;;;;;;;;25.56;39.19;92992.91;4955636;28;9078;-36
2024/01/03 04:53:25;;;;;;;;;;;;;;;25.53;38.51;92999.50;4940650;28;7233;-36
2024/01/03 04:55:51;;;;;;;;;;;;;;;25.53;38.49;93007.78;4945341;28;7266;-36
2024/01/03 04:58:17;;;;;;;;;;;;;;;25.55;38.30;93015.47;4947469;28;7599;-36
2024/01/03 05:00:48;;;;;;;;;;;;;;;25.51;38.75;93026.84;4930720;28;9049;-36
2024/01/03 05:03:16;;;;;;;;;;;;;;;25.49;38.62;93021.13;4958810;28;6987;-36
2024/01/03 05:05:44;;;;;;;;;;;;;;;25.49;38.95;93023.88;4963119;28;7238;-35
2024/01/03 05:08:10;;;;;;;;;;;;;;;25.50;38.89;93028.13;4959708;28;7166;-36
2024/01/03 05:10:44;;;;;;;;;;;;;;;25.49;38.38;93034.16;4977467;28;9036;-36
2024/01/03 05:13:14;;;;;;;;;;;;;;;25.54;38.68;93039.50;4976903;28;7283;-36
2024/01/03 05:15:44;;;;;;;;;;;;;;;25.57;39.05;93040.44;4970002;28;7058;-36
2024/01/03 05:18:17;;;;;;;;;;;;;;;25.54;39.00;93042.25;4944184;28;9574;-36
2024/01/03 05:20:54;;;;;;;;;;;;;;;25.54;38.63;93058.78;4960770;28;7316;-36
2024/01/03 05:23:35;;;;;;;;;;;;;;;25.52;38.65;93042.06;4959783;28;7002;-36
2024/01/03 05:26:35;;;;;;;;;;;;;;;25.54;39.00;93047.78;4960669;28;9422;-36
2024/01/03 05:29:03;;;;;;;;;;;;;;;25.52;39.01;93049.59;4959966;28;7500;-36
2024/01/03 05:31:33;;;;;;;;;;;;;;;25.51;38.61;93053.63;4976927;28;7425;-36
2024/01/03 05:34:10;;;;;;;;;;;;;;;25.47;39.09;93059.47;4963665;28;8820;-36
2024/01/03 05:36:41;;;;;;;;;;;;;;;25.46;38.83;93068.28;4968613;28;7208;-36
2024/01/03 05:39:12;;;;;;;;;;;;;;;25.48;38.45;93071.97;4955749;28;7021;-36
2024/01/03 05:41:48;;;;;;;;;;;;;;;25.48;39.27;93058.19;4976982;28;7216;-36
2024/01/03 05:44:21;;;;;;;;;;;;;;;25.51;39.05;93062.63;4975513;28;10048;-36
2024/01/03 05:46:47;;;;;;;;;;;;;;;25.49;39.14;93065.16;4957393;28;6980;-36
2024/01/03 05:49:15;;;;;;;;;;;;;;;25.45;38.71;93059.28;4951973;28;7159;-36
2024/01/03 05:51:43;;;;;;;;;;;;;;;25.41;38.70;93061.59;4947208;28;7276;-36
2024/01/03 05:54:14;;;;;;;;;;;;;;;25.45;38.50;93066.81;4963813;28;9110;-36
2024/01/03 05:56:57;;;;;;;;;;;;;;;25.47;38.68;93075.28;4973810;28;8782;-36
2024/01/03 05:59:25;;;;;;;;;;;;;;;25.49;38.36;93081.69;4965587;28;9560;-36
2024/01/03 06:01:54;;;;;;;;;;;;;;;25.49;38.63;93084.44;4943478;28;7273;-36
2024/01/03 06:04:27;;;;;;;;;;;;;;;25.46;39.00;93079.28;4956742;28;9167;-37
2024/01/03 06:06:55;;;;;;;;;;;;;;;25.46;38.44;93076.53;4952073;28;7245;-36
2024/01/03 06:09:21;;;;;;;;;;;;;;;25.43;38.78;93070.84;4955161;28;7893;-36
2024/01/03 06:12:06;;;;;;;;;;;;;;;25.49;38.52;93067.91;4958664;28;7187;-36
2024/01/03 06:14:38;;;;;;;;;;;;;;;25.48;38.86;93079.47;4938622;28;9120;-36
2024/01/03 06:17:07;;;;;;;;;;;;;;;25.47;39.17;93081.50;4950642;28;9280;-36
2024/01/03 06:20:11;;;;;;;;;;;;;;;25.46;39.18;93071.03;4961077;28;7067;-36
2024/01/03 06:22:38;;;;;;;;;;;;;;;25.48;38.95;93076.72;4864439;29;9071;-36
2024/01/03 06:25:16;;;;;;;;;;;;;;;25.48;39.20;93087.75;4865119;29;7244;-36
2024/01/03 06:27:44;;;;;;;;;;;;;;;25.49;39.37;93089.94;4880054;29;9274;-36
2024/01/03 06:30:21;;;;;;;;;;;;;;;25.49;38.63;93098.19;4864669;29;7652;-47
2024/01/03 06:32:48;;;;;;;;;;;;;;;25.48;39.08;93107.75;4879051;29;9151;-48
2024/01/03 06:35:14;;;;;;;;;;;;;;;25.51;38.81;93095.69;4863413;29;8528;-46
2024/01/03 06:37:40;;;;;;;;;;;;;;;25.51;39.08;93098.44;4860086;29;8734;-46
2024/01/03 06:40:16;;;;;;;;;;;;;;;25.53;38.99;93106.88;4877710;29;6985;-47
2024/01/03 06:42:43;;;;;;;;;;;;;;;25.50;38.55;93102.44;4859390;29;8664;-46
2024/01/03 06:45:12;;;;;;;;;;;;;;;25.56;38.80;93124.31;4862920;29;7250;-48
2024/01/03 06:47:42;;;;;;;;;;;;;;;25.56;38.65;93121.56;4876571;29;8781;-37
2024/01/03 06:50:13;;;;;;;;;;;;;;;25.58;38.24;93119.03;4860522;29;7484;-36
2024/01/03 06:52:43;;;;;;;;;;;;;;;25.59;38.59;93118.47;4861442;29;9793;-36
2024/01/03 06:55:09;;;;;;;;;;;;;;;25.61;39.07;93123.44;4877054;29;7241;-36
2024/01/03 06:57:34;;;;;;;;;;;;;;;25.59;38.46;93107.47;4959354;28;9174;-36
2024/01/03 07:00:00;;;;;;;;;;;;;;;25.60;38.50;93106.16;4969867;28;9088;-35
2024/01/03 07:02:26;;;;;;;;;;;;;;;25.62;38.56;93102.91;4943825;28;7233;-36
2024/01/03 07:04:54;;;;;;;;;;;;;;;25.58;38.64;93086.69;4968463;28;7244;-36
2024/01/03 07:07:20;;;;;;;;;;;;;;;25.64;38.26;93092.06;4949132;28;9612;-36
2024/01/03 07:09:56;;;;;;;;;;;;;;;25.64;38.65;93098.31;4956325;28;7302;-36
2024/01/03 07:12:23;;;;;;;;;;;;;;;25.62;38.47;93095.34;4950561;28;9136;-36
2024/01/03 07:14:56;;;;;;;;;;;;;;;25.66;39.13;93095.03;4946956;28;8826;-36
2024/01/03 07:17:22;;;;;;;;;;;;;;;25.66;38.64;93090.25;4946459;28;7689;-36
2024/01/03 07:20:05;;;;;;;;;;;;;;;25.67;38.80;93083.44;4937826;28;7055;-35
2024/01/03 07:22:31;;;;;;;;;;;;;;;25.68;38.64;93090.44;4948138;28;9484;-36
2024/01/03 07:25:02;;;;;;;;;;;;;;;25.70;38.95;93098.16;4937916;29;9087;-36
2024/01/03 07:27:34;;;;;;;;;;;;;;;25.70;38.09;93095.41;4945641;28;9501;-36
2024/01/03 07:30:09;;;;;;;;;;;;;;;25.71;38.47;93094.13;4951930;28;9152;-36
2024/01/03 07:32:39;;;;;;;;;;;;;;;25.69;39.11;93096.66;4948869;28;9136;-36
2024/01/03 07:35:06;;;;;;;;;;;;;;;25.69;38.75;93105.69;4965357;28;8176;-36
2024/01/03 07:37:34;;;;;;;;;;;;;;;25.71;38.69;93118.94;4937921;28;9538;-36
2024/01/03 07:40:00;;;;;;;;;;;;;;;25.73;38.88;93110.84;4953194;28;8364;-36
2024/01/03 07:42:26;;;;;;;;;;;;;;;25.71;38.84;93105.88;4952144;28;8811;-36
2024/01/03 07:44:52;;;;;;;;;;;;;;;25.71;39.02;93108.63;4968813;28;9207;-36
2024/01/03 07:47:23;;;;;;;;;;;;;;;25.72;39.07;93112.88;4952553;28;9403;-36
2024/01/03 07:49:50;;;;;;;;;;;;;;;25.71;38.93;93121.69;4955285;28;7079;-36
2024/01/03 07:52:16;;;;;;;;;;;;;;;25.72;38.57;93121.13;4947529;28;9269;-36
2024/01/03 07:54:44;;;;;;;;;;;;;;;25.72;38.64;93112.13;4943956;28;7435;-36
2024/01/03 07:57:10;;;;;;;;;;;;;;;25.71;38.60;93114.13;4943797;28;7437;-36
2024/01/03 07:59:40;;;;;;;;;;;;;;;25.70;38.58;93111.94;4948382;28;7068;-57
2024/01/03 08:02:07;;;;;;;;;;;;;;;25.67;38.74;93102.72;4946146;28;6980;-57
2024/01/03 08:04:33;;;;;;;;;;;;;;;25.67;38.32;93108.25;4941928;28;7988;-57
2024/01/03 08:06:59;;;;;;;;;;;;;;;25.67;38.95;93105.47;4942867;28;7210;-57
2024/01/03 08:09:29;;;;;;;;;;;;;;;25.69;37.85;93102.19;4960184;28;7044;-57
2024/01/03 08:12:25;;;;;;;;;;;;;;;25.69;38.83;93097.41;4956315;28;7537;-57
2024/01/03 08:14:56;;;;;;;;;;;;;;;25.64;38.60;93090.06;4911619;29;7251;-56
2024/01/03 08:17:33;;;;;;;;;;;;;;;25.67;39.00;93096.47;4908144;29;7241;-57
2024/01/03 08:19:59;;;;;;;;;;;;;;;25.67;38.80;93099.22;4915810;29;9453;-57
2024/01/03 08:22:29;;;;;;;;;;;;;;;25.65;38.76;93107.31;4899897;29;7536;-57
2024/01/03 08:25:25;;;;;;;;;;;;;;;25.68;38.91;93112.47;4897054;29;9257;-57
2024/01/03 08:28:21;;;;;;;;;;;;;;;25.69;39.42;93113.94;4858923;29;8402;-57
2024/01/03 08:30:48;;;;;;;;;;;;;;;25.68;39.08;93123.50;4798946;29;9270;-57
2024/01/03 08:33:24;;;;;;;;;;;;;;;25.67;39.04;93122.00;4785829;30;7139;-57
2024/01/03 08:36:00;;;;;;;;;;;;;;;25.65;39.12;93135.59;4786256;30;9203;-57
2024/01/03 08:38:28;;;;;;;;;;;;;;;25.68;39.59;93134.50;4771501;29;8985;-57
2024/01/03 08:40:57;;;;;;;;;;;;;;;25.71;39.28;93135.44;4786171;29;9156;-58
2024/01/03 08:43:34;;;;;;;;;;;;;;;25.71;39.57;93127.91;4786005;30;7411;-58
2024/01/03 08:46:15;;;;;;;;;;;;;;;25.77;38.74;93131.25;4803427;29;7248;-57
2024/01/03 08:48:56;;;;;;;;;;;;;;;25.80;38.90;93130.16;4787869;29;7147;-57
2024/01/03 08:51:23;;;;;;;;;;;;;;;25.83;39.26;93128.34;4807314;29;7269;-57
2024/01/03 08:54:09;;;;;;;;;;;;;;;25.83;39.30;93120.81;4822487;29;8934;-57
2024/01/03 08:56:49;;;;;;;;;;;;;;;25.82;38.94;93122.09;4822449;29;7258;-57
2024/01/03 08:59:21;;;;;;;;;;;;;;;25.83;38.90;93120.81;4825066;29;7507;-57
2024/01/03 09:01:58;;;;;;;;;;;;;;;25.81;38.64;93131.66;4821496;29;7097;-54
2024/01/03 09:04:50;;;;;;;;;;;;;;;25.80;39.44;93134.94;4833964;29;9137;-58
2024/01/03 09:07:31;;;;;;;;;;;;;;;25.81;39.43;93115.13;4911825;29;9711;-58
2024/01/03 09:09:59;;;;;;;;;;;;;;;25.82;40.42;93135.88;4938977;29;7148;-39
2024/01/03 09:12:26;;;;;;;;;;;;;;;25.79;39.84;93128.69;4944944;29;8100;-40
2024/01/03 09:14:56;;;;;;;;;;;;;;;25.80;39.98;93135.69;4947595;29;9283;-40
2024/01/03 09:17:27;;;;;;;;;;;;;;;25.79;40.05;93141.72;4950289;28;7465;-39
2024/01/03 09:20:03;;;;;;;;;;;;;;;25.79;39.59;93139.72;4960736;28;7275;-40
2024/01/03 09:22:56;;;;;;;;;;;;;;;25.77;39.60;93136.78;4953916;29;7279;-40
2024/01/03 09:25:24;;;;;;;;;;;;;;;25.78;39.63;93140.25;4895719;29;8856;-40
2024/01/03 09:28:02;;;;;;;;;;;;;;;25.77;39.24;93136.03;4898322;29;7145;-40
2024/01/03 09:30:42;;;;;;;;;;;;;;;25.77;40.20;93136.03;4900307;29;9057;-41
2024/01/03 09:33:39;;;;;;;;;;;;;;;25.78;39.99;93143.75;4899957;29;7920;-41
2024/01/03 09:36:17;;;;;;;;;;;;;;;25.72;39.12;93132.16;4882631;29;8890;-40
2024/01/03 09:39:12;;;;;;;;;;;;;;;25.76;38.85;93146.31;4899803;29;7475;-40
2024/01/03 09:42:16;;;;;;;;;;;;;;;25.76;39.70;93143.53;4899901;29;8728;-39
2024/01/03 09:44:44;;;;;;;;;;;;;;;25.74;39.34;93142.59;4861620;29;9507;-39
2024/01/03 09:47:12;;;;;;;;;;;;;;;25.76;40.00;93153.81;4859566;29;7236;-40
2024/01/03 09:49:50;;;;;;;;;;;;;;;25.79;39.03;93153.50;4860239;29;9196;-39
2024/01/03 09:52:17;;;;;;;;;;;;;;;25.78;39.08;93149.25;4855641;29;7258;-40
2024/01/03 09:54:43;;;;;;;;;;;;;;;25.79;39.29;93155.50;4849921;29;8763;-40
2024/01/03 09:57:14;;;;;;;;;;;;;;;25.79;39.55;93161.00;4843794;29;6981;-39
2024/01/03 09:59:40;;;;;;;;;;;;;;;25.75;39.77;93155.13;4848995;29;9052;-40
2024/01/03 10:02:11;;;;;;;;;;;;;;;25.77;39.38;93158.06;4876668;29;6993;-42
2024/01/03 10:04:46;;;;;;;;;;;;;;;25.78;39.57;93165.03;4896638;29;7009;-39
2024/01/03 10:07:12;;;;;;;;;;;;;;;25.75;39.54;93166.84;4910518;29;9119;-41
2024/01/03 10:09:44;;;;;;;;;;;;;;;25.79;39.17;93158.25;4897368;29;9465;-40
2024/01/03 10:12:17;;;;;;;;;;;;;;;25.77;39.79;93158.81;4864878;29;9132;-39
2024/01/03 10:14:52;;;;;;;;;;;;;;;25.78;39.00;93173.28;4897417;29;7240;-39
2024/01/03 10:17:20;;;;;;;;;;;;;;;25.77;39.79;93164.31;4897896;29;9037;-40
2024/01/03 10:19:47;;;;;;;;;;;;;;;25.74;39.83;93170.16;4954572;28;7299;-36
2024/01/03 10:22:41;;;;;;;;;;;;;;;25.77;38.90;93169.81;4956952;28;7041;-36
2024/01/03 10:25:23;;;;;;;;;;;;;;;25.78;38.89;93159.53;4937333;29;8232;-36
2024/01/03 10:27:59;;;;;;;;;;;;;;;25.80;38.74;93165.22;4920095;29;9334;-36
2024/01/03 10:30:38;;;;;;;;;;;;;;;25.75;39.07;93166.84;4937059;29;8834;-36
2024/01/03 10:33:27;;;;;;;;;;;;;;;25.75;38.78;93172.34;4929878;29;9104;-36
2024/01/03 10:36:10;;;;;;;;;;;;;;;25.76;39.35;93162.81;4916087;29;9428;-36
2024/01/03 10:38:49;;;;;;;;;;;;;;;25.78;38.72;93165.78;4929413;29;9085;-36
2024/01/03 10:41:35;;;;;;;;;;;;;;;25.80;39.06;93174.22;4935736;29;8762;-36
2024/01/03 10:44:15;;;;;;;;;;;;;;;25.79;39.47;93161.75;4933400;29;9191;-36
2024/01/03 10:47:07;;;;;;;;;;;;;;;25.81;38.26;93172.97;4917612;29;7231;-36
2024/01/03 10:49:51;;;;;;;;;;;;;;;25.76;38.89;93168.34;4933109;28;6944;-36
2024/01/03 10:52:35;;;;;;;;;;;;;;;25.72;37.57;93158.94;4935946;29;9260;-36
2024/01/03 10:55:38;;;;;;;;;;;;;;;25.71;37.50;93160.94;4918703;29;7203;-36
2024/01/03 10:58:21;;;;;;;;;;;;;;;25.69;37.82;93149.00;4922959;29;7450;-37
2024/01/03 11:01:30;;;;;;;;;;;;;;;25.70;37.30;93159.50;4929382;29;7067;-37
2024/01/03 11:04:48;;;;;;;;;;;;;;;25.71;37.69;93140.97;4938425;28;7361;-36
2024/01/03 11:07:59;;;;;;;;;;;;;;;25.69;37.82;93135.22;4910322;29;7428;-36
2024/01/03 11:10:56;;;;;;;;;;;;;;;25.68;38.00;93129.00;4907073;29;6996;-36
2024/01/03 11:13:32;;;;;;;;;;;;;;;25.70;37.78;93117.44;4908334;29;9059;-36
2024/01/03 11:16:02;;;;;;;;;;;;;;;25.71;37.42;93122.41;4892869;29;9398;-37
2024/01/03 11:18:45;;;;;;;;;;;;;;;25.70;37.42;93103.66;4901258;29;9083;-37
2024/01/03 11:21:28;;;;;;;;;;;;;;;25.67;37.79;93113.00;4912706;29;8430;-37
2024/01/03 11:24:30;;;;;;;;;;;;;;;25.63;37.74;93110.59;4905092;29;7423;-36
2024/01/03 11:27:07;;;;;;;;;;;;;;;25.63;38.10;93110.59;4841331;29;7419;-37
2024/01/03 11:29:46;;;;;;;;;;;;;;;25.64;37.45;93103.84;4841624;29;7094;-37
2024/01/03 11:33:00;;;;;;;;;;;;;;;25.68;37.82;93101.47;4843378;29;8939;-37
2024/01/03 11:35:46;;;;;;;;;;;;;;;25.69;37.22;93096.66;4840902;29;8037;-37
2024/01/03 11:38:44;;;;;;;;;;;;;;;25.70;36.97;93092.66;4842217;29;7010;-37
2024/01/03 11:41:22;;;;;;;;;;;;;;;25.70;37.85;93092.66;4832796;29;9429;-37
2024/01/03 11:43:48;;;;;;;;;;;;;;;25.66;37.63;93079.25;4858613;29;7277;-36
2024/01/03 11:46:27;;;;;;;;;;;;;;;25.65;37.46;93079.75;4866064;29;9254;-36
2024/01/03 11:49:06;;;;;;;;;;;;;;;25.62;37.23;93081.59;4842200;29;6996;-37
2024/01/03 11:51:41;;;;;;;;;;;;;;;25.64;37.03;93072.81;4864854;29;7162;-36
2024/01/03 11:54:08;;;;;;;;;;;;;;;25.61;37.62;93058.09;4859974;29;9162;-37
2024/01/03 11:56:53;;;;;;;;;;;;;;;25.65;37.46;93058.47;4859881;29;9145;-36
2024/01/03 11:59:37;;;;;;;;;;;;;;;25.69;37.78;93060.88;4860296;29;7644;-36
2024/01/03 12:02:03;;;;;;;;;;;;;;;25.70;37.28;93059.59;4948086;28;7635;-36
2024/01/03 12:04:41;;;;;;;;;;;;;;;25.72;37.62;93054.28;4951939;28;7026;-36
2024/01/03 12:07:37;;;;;;;;;;;;;;;25.71;38.08;93055.59;4944172;28;7450;-36
2024/01/03 12:10:17;;;;;;;;;;;;;;;25.68;38.03;93056.66;4883922;29;7244;-37
2024/01/03 12:12:55;;;;;;;;;;;;;;;25.72;38.26;93059.78;4873741;29;8699;-36
2024/01/03 12:15:41;;;;;;;;;;;;;;;25.74;38.15;93052.47;4879257;29;9539;-36
2024/01/03 12:18:09;;;;;;;;;;;;;;;25.75;38.32;93053.22;4881783;29;7322;-37
2024/01/03 12:20:35;;;;;;;;;;;;;;;25.76;37.59;93044.41;4874147;29;7008;-36
2024/01/03 12:23:13;;;;;;;;;;;;;;;25.75;38.04;93037.41;4881723;29;9049;-36
2024/01/03 12:25:44;;;;;;;;;;;;;;;25.79;37.93;93032.31;4881849;29;9082;-36
2024/01/03 12:28:22;;;;;;;;;;;;;;;25.77;37.89;93032.13;4897013;29;9000;-36
2024/01/03 12:30:59;;;;;;;;;;;;;;;25.79;38.25;93023.31;4874191;29;8752;-36
2024/01/03 12:33:35;;;;;;;;;;;;;;;25.79;37.97;93018.53;4894210;29;7131;-36
2024/01/03 12:36:06;;;;;;;;;;;;;;;25.79;37.98;93017.78;4870323;29;8780;-37
2024/01/03 12:39:01;;;;;;;;;;;;;;;25.74;38.47;93011.16;4893352;29;7590;-35
2024/01/03 12:41:36;;;;;;;;;;;;;;;25.74;38.01;93013.16;4844760;29;7673;-35
2024/01/03 12:44:31;;;;;;;;;;;;;;;25.80;38.04;93008.22;4836322;29;9630;-36
2024/01/03 12:47:18;;;;;;;;;;;;;;;25.80;38.04;93006.22;4791605;29;7267;-36
2024/01/03 12:50:16;;;;;;;;;;;;;;;25.80;38.45;92994.47;4809785;29;7240;-35
2024/01/03 12:52:54;;;;;;;;;;;;;;;25.77;38.31;92977.03;4819845;29;7226;-36
2024/01/03 12:55:31;;;;;;;;;;;;;;;25.81;38.49;92974.66;4813708;29;7264;-35
2024/01/03 12:57:58;;;;;;;;;;;;;;;25.80;37.81;92975.94;4819546;29;7198;-36
2024/01/03 13:00:24;;;;;;;;;;;;;;;25.80;38.10;92958.66;4819276;29;9009;-36
2024/01/03 13:02:50;;;;;;;;;;;;;;;25.79;37.96;92970.97;4824820;29;6966;-36
2024/01/03 13:05:16;;;;;;;;;;;;;;;25.77;38.05;92965.28;4802038;29;9354;-36
2024/01/03 13:07:51;;;;;;;;;;;;;;;25.78;37.95;92961.22;4813090;29;9082;-36
2024/01/03 13:10:38;;;;;;;;;;;;;;;25.78;38.28;92955.72;4794975;29;8775;-36
2024/01/03 13:13:14;;;;;;;;;;;;;;;25.79;38.14;92951.69;4817516;29;7515;-36
2024/01/03 13:15:51;;;;;;;;;;;;;;;25.77;38.51;92941.22;4831911;29;8240;-36
2024/01/03 13:18:22;;;;;;;;;;;;;;;25.78;38.46;92939.19;4831188;29;9028;-36
2024/01/03 13:20:58;;;;;;;;;;;;;;;25.77;38.30;92927.47;4844270;29;9277;-36
2024/01/03 13:23:25;;;;;;;;;;;;;;;25.76;38.83;92928.72;4878796;29;7122;-36
2024/01/03 13:25:53;;;;;;;;;;;;;;;25.75;38.70;92913.47;4903214;29;7479;-36
2024/01/03 13:28:34;;;;;;;;;;;;;;;25.74;38.56;92912.03;4926055;28;9565;-36
2024/01/03 13:31:19;;;;;;;;;;;;;;;25.78;37.93;92925.41;4958646;28;7073;-36
2024/01/03 13:33:45;;;;;;;;;;;;;;;25.79;37.54;92930.41;4958821;28;7404;-36
2024/01/03 13:36:31;;;;;;;;;;;;;;;25.77;37.88;92913.69;4960600;28;9061;-36
2024/01/03 13:39:05;;;;;;;;;;;;;;;25.78;38.41;92915.16;4958558;28;9821;-36
2024/01/03 13:41:54;;;;;;;;;;;;;;;25.80;38.15;92918.09;4973069;28;7240;-36
2024/01/03 13:44:20;;;;;;;;;;;;;;;25.79;37.73;92918.66;4964166;28;7044;-36